Aviation Digital Data Service (ADDS)

Output produced by METARs form (1427 UTC 10 July 2020)
found at http://www.aviationweather.gov/metar/data/
 
KAND 101356Z AUTO 29007KT 10SM CLR 28/22 A2996 RMK AO2 SLP136 T02830217
KAND 101151Z 1012/1112 VRB04KT P6SM FEW001 
     FM101400 23007KT P6SM SCT050 
     FM101700 26006KT P6SM VCTS SCT050CB 
     FM110500 30003KT P6SM SCT150